sensor_id;sensor_type;location;lat;lon;timestamp;P1;durP1;ratioP1;P2;durP2;ratioP2
38557;SDS011;24333;42.626;23.308;2023-05-10T00:01:52;4.80;;;2.83;;
38557;SDS011;24333;42.626;23.308;2023-05-10T00:04:23;5.60;;;3.63;;
38557;SDS011;24333;42.626;23.308;2023-05-10T00:06:52;6.30;;;3.85;;
38557;SDS011;24333;42.626;23.308;2023-05-10T00:09:17;5.25;;;3.35;;
38557;SDS011;24333;42.626;23.308;2023-05-10T00:11:49;8.48;;;3.70;;
38557;SDS011;24333;42.626;23.308;2023-05-10T00:14:16;7.13;;;3.40;;
38557;SDS011;24333;42.626;23.308;2023-05-10T00:19:17;6.53;;;3.60;;
38557;SDS011;24333;42.626;23.308;2023-05-10T00:21:43;6.47;;;3.47;;
38557;SDS011;24333;42.626;23.308;2023-05-10T00:24:08;10.60;;;4.15;;
38557;SDS011;24333;42.626;23.308;2023-05-10T00:26:40;8.25;;;4.13;;
38557;SDS011;24333;42.626;23.308;2023-05-10T00:29:18;6.57;;;4.13;;
38557;SDS011;24333;42.626;23.308;2023-05-10T00:31:44;7.60;;;4.22;;
38557;SDS011;24333;42.626;23.308;2023-05-10T00:34:10;9.20;;;4.13;;
38557;SDS011;24333;42.626;23.308;2023-05-10T00:36:35;8.82;;;3.65;;
38557;SDS011;24333;42.626;23.308;2023-05-10T00:39:01;6.40;;;4.00;;
38557;SDS011;24333;42.626;23.308;2023-05-10T00:41:28;6.47;;;3.55;;
38557;SDS011;24333;42.626;23.308;2023-05-10T00:43:54;6.40;;;3.72;;
38557;SDS011;24333;42.626;23.308;2023-05-10T00:51:35;7.18;;;3.92;;
38557;SDS011;24333;42.626;23.308;2023-05-10T01:00:01;6.72;;;3.70;;
38557;SDS011;24333;42.626;23.308;2023-05-10T01:02:37;9.50;;;3.83;;
38557;SDS011;24333;42.626;23.308;2023-05-10T01:05:04;7.40;;;4.13;;
38557;SDS011;24333;42.626;23.308;2023-05-10T01:07:40;6.68;;;3.40;;
38557;SDS011;24333;42.626;23.308;2023-05-10T01:10:07;7.07;;;3.53;;
38557;SDS011;24333;42.626;23.308;2023-05-10T01:12:38;6.40;;;3.72;;
38557;SDS011;24333;42.626;23.308;2023-05-10T01:15:06;7.47;;;3.92;;
38557;SDS011;24333;42.626;23.308;2023-05-10T01:17:37;6.53;;;3.78;;
38557;SDS011;24333;42.626;23.308;2023-05-10T01:25:49;7.82;;;3.53;;
38557;SDS011;24333;42.626;23.308;2023-05-10T01:32:13;7.05;;;3.58;;
38557;SDS011;24333;42.626;23.308;2023-05-10T01:34:35;6.00;;;3.47;;
38557;SDS011;24333;42.626;23.308;2023-05-10T01:37:21;6.18;;;3.70;;
38557;SDS011;24333;42.626;23.308;2023-05-10T01:40:01;5.93;;;3.40;;
38557;SDS011;24333;42.626;23.308;2023-05-10T01:42:36;5.90;;;3.53;;
38557;SDS011;24333;42.626;23.308;2023-05-10T02:16:16;4.45;;;2.35;;
38557;SDS011;24333;42.626;23.308;2023-05-10T02:18:43;3.70;;;2.20;;
38557;SDS011;24333;42.626;23.308;2023-05-10T02:23:37;3.10;;;1.83;;
38557;SDS011;24333;42.626;23.308;2023-05-10T02:26:05;3.20;;;2.25;;
38557;SDS011;24333;42.626;23.308;2023-05-10T02:33:54;5.10;;;2.85;;
38557;SDS011;24333;42.626;23.308;2023-05-10T02:36:22;3.90;;;2.47;;
38557;SDS011;24333;42.626;23.308;2023-05-10T02:38:48;3.88;;;2.58;;
38557;SDS011;24333;42.626;23.308;2023-05-10T02:41:16;4.00;;;1.98;;
38557;SDS011;24333;42.626;23.308;2023-05-10T02:43:44;5.13;;;2.22;;
38557;SDS011;24333;42.626;23.308;2023-05-10T02:46:17;1.85;;;1.17;;
38557;SDS011;24333;42.626;23.308;2023-05-10T02:48:43;2.47;;;1.25;;
38557;SDS011;24333;42.626;23.308;2023-05-10T03:04:05;3.13;;;1.88;;
38557;SDS011;24333;42.626;23.308;2023-05-10T03:06:31;3.15;;;2.00;;
38557;SDS011;24333;42.626;23.308;2023-05-10T03:08:56;3.05;;;1.90;;
38557;SDS011;24333;42.626;23.308;2023-05-10T03:22:29;5.57;;;1.90;;
38557;SDS011;24333;42.626;23.308;2023-05-10T04:30:15;7.97;;;4.05;;
38557;SDS011;24333;42.626;23.308;2023-05-10T04:32:40;6.82;;;3.72;;
38557;SDS011;24333;42.626;23.308;2023-05-10T04:35:09;5.75;;;3.53;;
38557;SDS011;24333;42.626;23.308;2023-05-10T04:37:35;8.70;;;3.53;;
38557;SDS011;24333;42.626;23.308;2023-05-10T04:40:01;8.20;;;4.32;;
38557;SDS011;24333;42.626;23.308;2023-05-10T04:42:28;5.95;;;3.80;;
38557;SDS011;24333;42.626;23.308;2023-05-10T05:29:33;6.95;;;3.63;;
38557;SDS011;24333;42.626;23.308;2023-05-10T05:31:59;7.32;;;3.97;;
38557;SDS011;24333;42.626;23.308;2023-05-10T05:34:25;6.80;;;3.70;;
38557;SDS011;24333;42.626;23.308;2023-05-10T05:36:51;10.15;;;4.43;;
38557;SDS011;24333;42.626;23.308;2023-05-10T05:39:16;8.43;;;4.20;;
38557;SDS011;24333;42.626;23.308;2023-05-10T05:41:42;9.63;;;3.95;;
38557;SDS011;24333;42.626;23.308;2023-05-10T05:44:07;7.50;;;4.00;;
38557;SDS011;24333;42.626;23.308;2023-05-10T05:46:45;8.10;;;3.83;;
38557;SDS011;24333;42.626;23.308;2023-05-10T05:49:10;8.20;;;4.00;;
38557;SDS011;24333;42.626;23.308;2023-05-10T05:51:36;7.65;;;3.60;;
38557;SDS011;24333;42.626;23.308;2023-05-10T05:54:01;8.02;;;4.50;;
38557;SDS011;24333;42.626;23.308;2023-05-10T05:56:29;10.38;;;4.53;;
38557;SDS011;24333;42.626;23.308;2023-05-10T05:58:54;8.00;;;4.45;;
38557;SDS011;24333;42.626;23.308;2023-05-10T06:01:20;8.35;;;3.95;;
38557;SDS011;24333;42.626;23.308;2023-05-10T06:03:46;10.10;;;4.43;;
38557;SDS011;24333;42.626;23.308;2023-05-10T06:06:13;9.75;;;4.35;;
38557;SDS011;24333;42.626;23.308;2023-05-10T06:08:38;11.02;;;4.72;;
38557;SDS011;24333;42.626;23.308;2023-05-10T06:11:07;8.68;;;4.43;;
38557;SDS011;24333;42.626;23.308;2023-05-10T06:13:32;11.90;;;5.03;;
38557;SDS011;24333;42.626;23.308;2023-05-10T06:16:00;9.75;;;4.72;;
38557;SDS011;24333;42.626;23.308;2023-05-10T06:18:26;8.95;;;4.93;;
38557;SDS011;24333;42.626;23.308;2023-05-10T06:20:51;10.13;;;5.30;;
38557;SDS011;24333;42.626;23.308;2023-05-10T06:23:17;12.13;;;4.43;;
38557;SDS011;24333;42.626;23.308;2023-05-10T06:25:42;10.13;;;4.78;;
38557;SDS011;24333;42.626;23.308;2023-05-10T06:28:08;12.40;;;4.97;;
38557;SDS011;24333;42.626;23.308;2023-05-10T06:30:35;11.32;;;5.43;;
38557;SDS011;24333;42.626;23.308;2023-05-10T06:33:09;11.95;;;5.72;;
38557;SDS011;24333;42.626;23.308;2023-05-10T06:35:36;12.32;;;5.20;;
38557;SDS011;24333;42.626;23.308;2023-05-10T06:38:01;8.57;;;4.45;;
38557;SDS011;24333;42.626;23.308;2023-05-10T06:40:27;8.35;;;4.05;;
38557;SDS011;24333;42.626;23.308;2023-05-10T06:42:52;9.77;;;4.88;;
38557;SDS011;24333;42.626;23.308;2023-05-10T06:45:18;10.52;;;5.00;;
38557;SDS011;24333;42.626;23.308;2023-05-10T06:47:43;10.95;;;4.82;;
38557;SDS011;24333;42.626;23.308;2023-05-10T06:50:09;9.15;;;4.28;;
38557;SDS011;24333;42.626;23.308;2023-05-10T06:52:36;8.45;;;4.30;;
38557;SDS011;24333;42.626;23.308;2023-05-10T06:55:02;8.18;;;4.70;;
38557;SDS011;24333;42.626;23.308;2023-05-10T07:18:26;10.02;;;5.00;;
38557;SDS011;24333;42.626;23.308;2023-05-10T07:20:52;12.85;;;5.35;;
38557;SDS011;24333;42.626;23.308;2023-05-10T07:23:26;8.60;;;4.65;;
38557;SDS011;24333;42.626;23.308;2023-05-10T07:26:01;10.77;;;5.32;;
38557;SDS011;24333;42.626;23.308;2023-05-10T07:47:26;9.77;;;4.47;;
38557;SDS011;24333;42.626;23.308;2023-05-10T08:13:05;9.55;;;5.22;;
38557;SDS011;24333;42.626;23.308;2023-05-10T08:41:35;13.10;;;6.35;;
38557;SDS011;24333;42.626;23.308;2023-05-10T08:44:05;12.90;;;5.45;;
38557;SDS011;24333;42.626;23.308;2023-05-10T08:46:36;10.27;;;5.90;;
38557;SDS011;24333;42.626;23.308;2023-05-10T08:49:21;9.50;;;5.47;;
38557;SDS011;24333;42.626;23.308;2023-05-10T08:54:37;8.80;;;5.13;;
38557;SDS011;24333;42.626;23.308;2023-05-10T08:57:06;11.52;;;5.75;;
38557;SDS011;24333;42.626;23.308;2023-05-10T08:59:32;11.70;;;6.05;;
38557;SDS011;24333;42.626;23.308;2023-05-10T10:20:16;12.70;;;6.03;;
38557;SDS011;24333;42.626;23.308;2023-05-10T10:22:58;12.50;;;7.00;;
38557;SDS011;24333;42.626;23.308;2023-05-10T10:25:25;11.35;;;6.40;;
38557;SDS011;24333;42.626;23.308;2023-05-10T10:27:59;13.13;;;7.05;;
38557;SDS011;24333;42.626;23.308;2023-05-10T10:30:55;11.90;;;6.60;;
38557;SDS011;24333;42.626;23.308;2023-05-10T10:33:30;12.25;;;6.28;;
38557;SDS011;24333;42.626;23.308;2023-05-10T10:36:05;14.80;;;8.20;;
38557;SDS011;24333;42.626;23.308;2023-05-10T10:52:49;13.85;;;6.90;;
38557;SDS011;24333;42.626;23.308;2023-05-10T10:55:17;12.05;;;6.32;;
38557;SDS011;24333;42.626;23.308;2023-05-10T10:57:48;13.10;;;6.28;;
38557;SDS011;24333;42.626;23.308;2023-05-10T11:03:05;11.57;;;6.30;;
38557;SDS011;24333;42.626;23.308;2023-05-10T11:08:08;16.17;;;6.30;;
38557;SDS011;24333;42.626;23.308;2023-05-10T11:10:40;10.98;;;5.93;;
38557;SDS011;24333;42.626;23.308;2023-05-10T11:14:04;9.90;;;6.03;;
38557;SDS011;24333;42.626;23.308;2023-05-10T11:16:43;12.85;;;5.95;;
38557;SDS011;24333;42.626;23.308;2023-05-10T11:19:18;12.35;;;6.18;;
38557;SDS011;24333;42.626;23.308;2023-05-10T11:24:17;12.77;;;5.85;;
38557;SDS011;24333;42.626;23.308;2023-05-10T11:26:51;12.43;;;6.40;;
38557;SDS011;24333;42.626;23.308;2023-05-10T11:29:24;11.30;;;5.82;;
38557;SDS011;24333;42.626;23.308;2023-05-10T11:31:51;14.70;;;6.15;;
38557;SDS011;24333;42.626;23.308;2023-05-10T11:34:23;14.43;;;6.85;;
38557;SDS011;24333;42.626;23.308;2023-05-10T11:36:55;12.75;;;6.30;;
38557;SDS011;24333;42.626;23.308;2023-05-10T11:39:21;12.50;;;6.40;;
38557;SDS011;24333;42.626;23.308;2023-05-10T11:41:50;11.57;;;6.13;;
38557;SDS011;24333;42.626;23.308;2023-05-10T11:44:15;11.50;;;5.50;;
38557;SDS011;24333;42.626;23.308;2023-05-10T11:46:41;10.25;;;5.90;;
38557;SDS011;24333;42.626;23.308;2023-05-10T11:49:07;9.68;;;5.50;;
38557;SDS011;24333;42.626;23.308;2023-05-10T11:51:33;13.45;;;6.25;;
38557;SDS011;24333;42.626;23.308;2023-05-10T12:54:32;10.40;;;5.88;;
38557;SDS011;24333;42.626;23.308;2023-05-10T13:03:09;16.30;;;6.65;;
38557;SDS011;24333;42.626;23.308;2023-05-10T13:05:41;12.55;;;6.70;;
38557;SDS011;24333;42.626;23.308;2023-05-10T13:14:32;12.75;;;6.55;;
38557;SDS011;24333;42.626;23.308;2023-05-10T13:17:02;12.40;;;6.20;;
38557;SDS011;24333;42.626;23.308;2023-05-10T13:22:03;11.87;;;6.30;;
38557;SDS011;24333;42.626;23.308;2023-05-10T13:29:46;14.18;;;6.22;;
38557;SDS011;24333;42.626;23.308;2023-05-10T13:32:18;11.95;;;5.90;;
38557;SDS011;24333;42.626;23.308;2023-05-10T13:58:19;14.40;;;5.90;;
38557;SDS011;24333;42.626;23.308;2023-05-10T14:00:45;11.02;;;5.93;;
38557;SDS011;24333;42.626;23.308;2023-05-10T14:03:10;12.30;;;6.03;;
38557;SDS011;24333;42.626;23.308;2023-05-10T14:05:36;11.80;;;5.75;;
38557;SDS011;24333;42.626;23.308;2023-05-10T14:08:06;12.02;;;6.63;;
38557;SDS011;24333;42.626;23.308;2023-05-10T14:10:32;13.15;;;6.65;;
38557;SDS011;24333;42.626;23.308;2023-05-10T14:12:57;13.00;;;6.75;;
38557;SDS011;24333;42.626;23.308;2023-05-10T14:15:26;13.40;;;5.88;;
38557;SDS011;24333;42.626;23.308;2023-05-10T14:17:51;13.75;;;7.07;;
38557;SDS011;24333;42.626;23.308;2023-05-10T14:22:42;15.77;;;7.13;;
38557;SDS011;24333;42.626;23.308;2023-05-10T14:25:07;27.25;;;10.32;;
38557;SDS011;24333;42.626;23.308;2023-05-10T14:27:46;20.20;;;9.50;;
38557;SDS011;24333;42.626;23.308;2023-05-10T14:30:11;12.50;;;6.00;;
38557;SDS011;24333;42.626;23.308;2023-05-10T14:32:42;13.88;;;6.32;;
38557;SDS011;24333;42.626;23.308;2023-05-10T14:35:08;13.18;;;6.10;;
38557;SDS011;24333;42.626;23.308;2023-05-10T14:37:39;12.63;;;6.55;;
38557;SDS011;24333;42.626;23.308;2023-05-10T14:40:07;10.05;;;5.47;;
38557;SDS011;24333;42.626;23.308;2023-05-10T14:42:53;16.80;;;7.50;;
38557;SDS011;24333;42.626;23.308;2023-05-10T14:45:22;16.05;;;7.57;;
38557;SDS011;24333;42.626;23.308;2023-05-10T14:47:48;13.05;;;5.80;;
38557;SDS011;24333;42.626;23.308;2023-05-10T14:50:16;15.93;;;6.97;;
38557;SDS011;24333;42.626;23.308;2023-05-10T14:56:00;15.85;;;7.32;;
38557;SDS011;24333;42.626;23.308;2023-05-10T14:58:27;13.73;;;6.63;;
38557;SDS011;24333;42.626;23.308;2023-05-10T15:00:53;12.77;;;6.43;;
38557;SDS011;24333;42.626;23.308;2023-05-10T15:03:20;17.08;;;6.38;;
38557;SDS011;24333;42.626;23.308;2023-05-10T15:05:46;20.63;;;7.22;;
38557;SDS011;24333;42.626;23.308;2023-05-10T15:08:12;21.33;;;7.72;;
38557;SDS011;24333;42.626;23.308;2023-05-10T15:10:37;21.05;;;9.27;;
38557;SDS011;24333;42.626;23.308;2023-05-10T15:13:03;13.48;;;6.80;;
38557;SDS011;24333;42.626;23.308;2023-05-10T15:15:29;18.27;;;7.15;;
38557;SDS011;24333;42.626;23.308;2023-05-10T15:17:55;16.42;;;6.00;;
38557;SDS011;24333;42.626;23.308;2023-05-10T15:20:20;12.52;;;5.30;;
38557;SDS011;24333;42.626;23.308;2023-05-10T15:36:24;12.93;;;6.10;;
38557;SDS011;24333;42.626;23.308;2023-05-10T15:38:50;17.65;;;6.65;;
38557;SDS011;24333;42.626;23.308;2023-05-10T15:41:15;12.05;;;6.60;;
38557;SDS011;24333;42.626;23.308;2023-05-10T15:43:41;12.38;;;5.82;;
38557;SDS011;24333;42.626;23.308;2023-05-10T15:46:06;17.00;;;6.38;;
38557;SDS011;24333;42.626;23.308;2023-05-10T15:48:33;13.68;;;6.45;;
38557;SDS011;24333;42.626;23.308;2023-05-10T15:50:58;19.45;;;7.47;;
38557;SDS011;24333;42.626;23.308;2023-05-10T15:53:52;20.00;;;8.23;;
38557;SDS011;24333;42.626;23.308;2023-05-10T15:56:36;20.25;;;8.55;;
38557;SDS011;24333;42.626;23.308;2023-05-10T15:59:07;45.80;;;18.58;;
38557;SDS011;24333;42.626;23.308;2023-05-10T16:01:35;38.95;;;16.45;;
38557;SDS011;24333;42.626;23.308;2023-05-10T16:04:01;20.58;;;9.70;;
38557;SDS011;24333;42.626;23.308;2023-05-10T16:06:30;16.80;;;7.90;;
38557;SDS011;24333;42.626;23.308;2023-05-10T16:08:58;14.77;;;7.38;;
38557;SDS011;24333;42.626;23.308;2023-05-10T16:11:24;13.68;;;6.90;;
38557;SDS011;24333;42.626;23.308;2023-05-10T16:13:50;10.80;;;6.22;;
38557;SDS011;24333;42.626;23.308;2023-05-10T16:16:16;12.38;;;6.05;;
38557;SDS011;24333;42.626;23.308;2023-05-10T16:18:42;12.43;;;5.70;;
38557;SDS011;24333;42.626;23.308;2023-05-10T16:21:07;13.10;;;6.97;;
38557;SDS011;24333;42.626;23.308;2023-05-10T16:23:32;14.88;;;6.68;;
38557;SDS011;24333;42.626;23.308;2023-05-10T16:25:58;11.43;;;6.22;;
38557;SDS011;24333;42.626;23.308;2023-05-10T16:28:23;15.50;;;7.80;;
38557;SDS011;24333;42.626;23.308;2023-05-10T16:30:50;12.75;;;6.95;;
38557;SDS011;24333;42.626;23.308;2023-05-10T16:33:15;10.82;;;6.10;;
38557;SDS011;24333;42.626;23.308;2023-05-10T17:50:28;14.00;;;4.38;;
38557;SDS011;24333;42.626;23.308;2023-05-10T17:52:53;7.97;;;4.07;;
38557;SDS011;24333;42.626;23.308;2023-05-10T17:55:20;8.98;;;4.82;;
38557;SDS011;24333;42.626;23.308;2023-05-10T17:58:17;9.35;;;4.80;;
38557;SDS011;24333;42.626;23.308;2023-05-10T18:00:42;12.82;;;5.82;;
38557;SDS011;24333;42.626;23.308;2023-05-10T18:03:09;12.18;;;5.40;;
38557;SDS011;24333;42.626;23.308;2023-05-10T18:05:35;9.30;;;4.55;;
38557;SDS011;24333;42.626;23.308;2023-05-10T18:08:03;8.77;;;5.00;;
38557;SDS011;24333;42.626;23.308;2023-05-10T18:39:51;8.50;;;4.65;;
38557;SDS011;24333;42.626;23.308;2023-05-10T18:42:16;9.25;;;4.78;;
38557;SDS011;24333;42.626;23.308;2023-05-10T18:44:42;22.63;;;6.00;;
38557;SDS011;24333;42.626;23.308;2023-05-10T18:47:08;11.82;;;4.78;;
38557;SDS011;24333;42.626;23.308;2023-05-10T18:49:34;9.40;;;4.38;;
38557;SDS011;24333;42.626;23.308;2023-05-10T18:51:59;6.43;;;3.80;;
38557;SDS011;24333;42.626;23.308;2023-05-10T18:54:27;11.73;;;4.00;;
38557;SDS011;24333;42.626;23.308;2023-05-10T18:56:52;8.55;;;4.32;;
38557;SDS011;24333;42.626;23.308;2023-05-10T18:59:18;6.40;;;3.65;;
38557;SDS011;24333;42.626;23.308;2023-05-10T19:01:43;7.00;;;3.92;;
38557;SDS011;24333;42.626;23.308;2023-05-10T19:04:09;6.47;;;3.97;;
38557;SDS011;24333;42.626;23.308;2023-05-10T19:06:37;8.73;;;3.85;;
38557;SDS011;24333;42.626;23.308;2023-05-10T19:09:02;8.00;;;3.95;;
38557;SDS011;24333;42.626;23.308;2023-05-10T19:11:28;6.13;;;3.28;;
38557;SDS011;24333;42.626;23.308;2023-05-10T19:13:56;7.85;;;4.35;;
38557;SDS011;24333;42.626;23.308;2023-05-10T19:16:21;8.63;;;4.05;;
38557;SDS011;24333;42.626;23.308;2023-05-10T19:18:47;11.75;;;3.65;;
38557;SDS011;24333;42.626;23.308;2023-05-10T19:21:12;5.57;;;3.40;;
38557;SDS011;24333;42.626;23.308;2023-05-10T19:39:08;9.25;;;4.18;;
38557;SDS011;24333;42.626;23.308;2023-05-10T19:41:34;12.57;;;4.03;;
38557;SDS011;24333;42.626;23.308;2023-05-10T19:43:59;7.97;;;3.65;;
38557;SDS011;24333;42.626;23.308;2023-05-10T19:46:25;6.40;;;3.83;;
38557;SDS011;24333;42.626;23.308;2023-05-10T19:48:51;8.30;;;4.22;;
38557;SDS011;24333;42.626;23.308;2023-05-10T19:51:16;6.78;;;3.65;;
38557;SDS011;24333;42.626;23.308;2023-05-10T19:53:42;6.80;;;3.95;;
38557;SDS011;24333;42.626;23.308;2023-05-10T19:56:08;4.97;;;3.38;;
38557;SDS011;24333;42.626;23.308;2023-05-10T19:58:35;7.05;;;3.95;;
38557;SDS011;24333;42.626;23.308;2023-05-10T20:01:02;7.32;;;4.30;;
38557;SDS011;24333;42.626;23.308;2023-05-10T20:03:31;4.85;;;3.22;;
38557;SDS011;24333;42.626;23.308;2023-05-10T20:05:57;7.80;;;3.33;;
38557;SDS011;24333;42.626;23.308;2023-05-10T20:08:23;6.07;;;3.60;;
38557;SDS011;24333;42.626;23.308;2023-05-10T20:10:48;7.10;;;3.95;;
38557;SDS011;24333;42.626;23.308;2023-05-10T20:13:14;5.57;;;3.40;;
38557;SDS011;24333;42.626;23.308;2023-05-10T20:15:40;12.20;;;4.30;;
38557;SDS011;24333;42.626;23.308;2023-05-10T20:18:05;8.02;;;3.67;;
38557;SDS011;24333;42.626;23.308;2023-05-10T20:20:30;5.82;;;3.60;;
38557;SDS011;24333;42.626;23.308;2023-05-10T20:22:56;10.52;;;3.92;;
38557;SDS011;24333;42.626;23.308;2023-05-10T20:25:22;8.65;;;4.13;;
38557;SDS011;24333;42.626;23.308;2023-05-10T20:27:47;6.28;;;3.78;;
38557;SDS011;24333;42.626;23.308;2023-05-10T20:30:14;7.45;;;4.07;;
38557;SDS011;24333;42.626;23.308;2023-05-10T20:32:41;7.28;;;4.20;;
38557;SDS011;24333;42.626;23.308;2023-05-10T20:35:07;6.57;;;3.72;;
38557;SDS011;24333;42.626;23.308;2023-05-10T20:37:35;6.40;;;3.63;;
38557;SDS011;24333;42.626;23.308;2023-05-10T22:15:02;7.97;;;5.47;;
38557;SDS011;24333;42.626;23.308;2023-05-10T22:17:29;10.77;;;5.55;;
38557;SDS011;24333;42.626;23.308;2023-05-10T22:19:55;9.10;;;5.32;;
38557;SDS011;24333;42.626;23.308;2023-05-10T22:22:20;11.25;;;6.20;;
38557;SDS011;24333;42.626;23.308;2023-05-10T22:25:06;9.25;;;5.05;;
38557;SDS011;24333;42.626;23.308;2023-05-10T22:27:50;12.10;;;5.13;;
38557;SDS011;24333;42.626;23.308;2023-05-10T22:30:18;10.13;;;5.90;;
38557;SDS011;24333;42.626;23.308;2023-05-10T22:32:44;13.35;;;5.63;;
38557;SDS011;24333;42.626;23.308;2023-05-10T22:35:12;8.10;;;5.40;;
38557;SDS011;24333;42.626;23.308;2023-05-10T22:37:40;9.68;;;6.15;;
38557;SDS011;24333;42.626;23.308;2023-05-10T22:40:06;13.25;;;5.90;;
38557;SDS011;24333;42.626;23.308;2023-05-10T22:42:32;11.80;;;6.35;;
38557;SDS011;24333;42.626;23.308;2023-05-10T22:44:57;10.50;;;5.88;;
38557;SDS011;24333;42.626;23.308;2023-05-10T22:47:23;11.15;;;5.97;;
38557;SDS011;24333;42.626;23.308;2023-05-10T22:49:48;14.50;;;7.05;;
38557;SDS011;24333;42.626;23.308;2023-05-10T22:52:13;14.30;;;7.07;;
38557;SDS011;24333;42.626;23.308;2023-05-10T22:54:39;15.30;;;6.68;;
38557;SDS011;24333;42.626;23.308;2023-05-10T22:57:04;14.00;;;7.28;;
38557;SDS011;24333;42.626;23.308;2023-05-10T22:59:30;11.13;;;7.35;;
38557;SDS011;24333;42.626;23.308;2023-05-10T23:41:21;7.45;;;4.70;;
38557;SDS011;24333;42.626;23.308;2023-05-10T23:43:47;9.68;;;5.35;;
38557;SDS011;24333;42.626;23.308;2023-05-10T23:46:12;9.95;;;5.57;;
38557;SDS011;24333;42.626;23.308;2023-05-10T23:48:38;10.05;;;5.78;;
38557;SDS011;24333;42.626;23.308;2023-05-10T23:51:03;9.55;;;5.72;;
38557;SDS011;24333;42.626;23.308;2023-05-10T23:53:29;9.25;;;4.88;;
38557;SDS011;24333;42.626;23.308;2023-05-10T23:55:54;12.27;;;5.85;;
38557;SDS011;24333;42.626;23.308;2023-05-10T23:58:20;9.85;;;6.13;;
